createdAt,value
2023-11-14T00:00:22.292Z,62.09
2023-11-14T00:01:28.025Z,62
2023-11-14T00:02:33.564Z,62.06
2023-11-14T00:03:39.358Z,62.06
2023-11-14T00:04:45.242Z,62.08
2023-11-14T00:05:50.749Z,62.09
2023-11-14T00:06:56.218Z,62.15
2023-11-14T00:08:01.821Z,62.11
2023-11-14T00:09:07.335Z,62.13
2023-11-14T00:10:12.884Z,62.2
2023-11-14T00:11:18.352Z,62.18
2023-11-14T00:12:24.754Z,62.24
2023-11-14T00:13:30.593Z,62.15
2023-11-14T00:14:36.088Z,62.21
2023-11-14T00:15:41.696Z,62.21
2023-11-14T00:16:47.600Z,62.28
2023-11-14T00:17:53.481Z,62.3
2023-11-14T00:18:58.975Z,62.3
2023-11-14T00:20:04.658Z,62.37
2023-11-14T00:21:10.158Z,62.48
2023-11-14T00:22:15.656Z,62.43
2023-11-14T00:23:21.132Z,62.4
2023-11-14T00:24:26.580Z,62.39
2023-11-14T00:25:32.174Z,62.47
2023-11-14T00:26:37.717Z,62.44
2023-11-14T00:27:43.165Z,62.44
2023-11-14T00:28:48.716Z,62.38
2023-11-14T00:29:54.222Z,62.51
2023-11-14T00:30:59.679Z,62.49
2023-11-14T00:32:05.465Z,62.61
2023-11-14T00:33:11.072Z,62.56
2023-11-14T00:34:16.548Z,62.61
2023-11-14T00:35:22.019Z,62.65
2023-11-14T00:36:27.576Z,62.63
2023-11-14T00:37:33.275Z,62.6
2023-11-14T00:38:38.737Z,62.69
2023-11-14T00:39:44.194Z,62.73
2023-11-14T00:40:49.806Z,62.66
2023-11-14T00:41:55.365Z,62.83
2023-11-14T00:43:00.817Z,62.85
2023-11-14T00:44:06.376Z,62.88
2023-11-14T00:45:12.175Z,62.86
2023-11-14T00:46:17.722Z,63.07
2023-11-14T00:47:23.398Z,63.34
2023-11-14T00:48:28.900Z,63.12
2023-11-14T00:49:34.505Z,62.95
2023-11-14T00:50:40.577Z,62.96
2023-11-14T00:51:46.063Z,63.12
2023-11-14T00:52:51.570Z,63.19
2023-11-14T00:53:57.074Z,63.13
2023-11-14T00:55:02.669Z,63.76
2023-11-14T00:56:09.986Z,63.18
2023-11-14T00:57:15.533Z,63.22
2023-11-14T00:58:21.010Z,63.03
2023-11-14T00:59:26.506Z,63.17
2023-11-14T01:00:32.071Z,63.57
2023-11-14T01:01:37.953Z,63.01
2023-11-14T01:02:43.873Z,63.35
2023-11-14T01:03:49.649Z,63.5
2023-11-14T01:04:55.351Z,63.08
2023-11-14T01:06:00.945Z,63.3
2023-11-14T01:07:06.443Z,63.02
2023-11-14T01:08:12.044Z,63.14
2023-11-14T01:09:17.520Z,63.34
2023-11-14T01:10:22.999Z,63.14
2023-11-14T01:11:28.471Z,63
2023-11-14T01:12:33.925Z,62.97
2023-11-14T01:13:39.519Z,62.91
2023-11-14T01:14:45.007Z,63.18
2023-11-14T01:15:50.631Z,63.25
2023-11-14T01:16:56.201Z,63.17
2023-11-14T01:18:01.829Z,63.08
2023-11-14T01:19:07.576Z,63.13
2023-11-14T01:20:13.305Z,63.2
2023-11-14T01:21:18.786Z,63.09
2023-11-14T01:22:24.380Z,63.16
2023-11-14T01:23:30.148Z,63.34
2023-11-14T01:24:35.697Z,63.86
2023-11-14T01:25:41.269Z,63.77
2023-11-14T01:26:46.734Z,63.62
2023-11-14T01:27:52.232Z,63.57
2023-11-14T01:28:57.959Z,63.39
2023-11-14T01:30:03.443Z,63.94
2023-11-14T01:31:08.975Z,63.41
2023-11-14T01:32:15.020Z,63.38
2023-11-14T01:33:20.500Z,63.24
2023-11-14T01:34:25.960Z,63.22
2023-11-14T01:35:31.392Z,63.41
2023-11-14T01:36:36.901Z,63.16
2023-11-14T01:37:42.461Z,63.22
2023-11-14T01:38:47.942Z,63.34
2023-11-14T01:39:53.452Z,63.14
2023-11-14T01:40:59.034Z,63.63
2023-11-14T01:42:04.539Z,63.64
2023-11-14T01:43:09.993Z,63.83
2023-11-14T01:44:15.527Z,63.34
2023-11-14T01:45:21.095Z,63.39
2023-11-14T01:46:26.869Z,63.36
2023-11-14T01:47:32.939Z,63.48
2023-11-14T01:48:38.446Z,63.47
2023-11-14T01:49:44.011Z,63.62
2023-11-14T01:50:49.537Z,63.79
2023-11-14T01:51:55.021Z,63.87
2023-11-14T01:53:00.706Z,63.82
2023-11-14T01:54:06.162Z,63.74
2023-11-14T01:55:11.647Z,63.51
2023-11-14T01:56:17.090Z,63.44
2023-11-14T01:57:22.571Z,63.65
2023-11-14T01:58:28.000Z,63.51
2023-11-14T01:59:33.527Z,64.05
2023-11-14T02:00:39.000Z,63.59
2023-11-14T02:01:44.576Z,63.91
2023-11-14T02:02:50.522Z,63.75
2023-11-14T02:03:56.031Z,63.91
2023-11-14T02:05:01.710Z,63.98
2023-11-14T02:06:07.165Z,63.94
2023-11-14T02:07:15.238Z,63.99
2023-11-14T02:08:20.878Z,63.43
2023-11-14T02:09:26.379Z,63.94
2023-11-14T02:10:31.913Z,63.83
2023-11-14T02:11:37.423Z,64.12
2023-11-14T02:12:42.875Z,64.16
2023-11-14T02:13:48.479Z,64.24
2023-11-14T02:14:54.005Z,63.69
2023-11-14T02:15:59.538Z,63.49
2023-11-14T02:17:05.254Z,63.44
2023-11-14T02:18:10.896Z,63.66
2023-11-14T02:19:16.459Z,63.6
2023-11-14T02:20:21.940Z,63.64
2023-11-14T02:21:27.434Z,63.74
2023-11-14T02:22:33.205Z,63.43
2023-11-14T02:23:38.679Z,63.65
2023-11-14T02:24:44.126Z,63.7
2023-11-14T02:25:49.680Z,64.19
2023-11-14T02:26:55.225Z,63.64
2023-11-14T02:28:00.677Z,63.98
2023-11-14T02:29:06.279Z,63.96
2023-11-14T02:30:11.939Z,63.49
2023-11-14T02:31:17.518Z,64.35
2023-11-14T02:32:23.032Z,64.31
2023-11-14T02:33:28.528Z,63.85
2023-11-14T02:34:34.036Z,64.22
2023-11-14T02:35:39.530Z,63.77
2023-11-14T02:36:45.022Z,64.3
2023-11-14T02:37:51.654Z,63.99
2023-11-14T02:38:57.155Z,63.83
2023-11-14T02:40:02.705Z,63.8
2023-11-14T02:41:08.322Z,63.69
2023-11-14T02:42:13.812Z,63.65
2023-11-14T02:43:19.296Z,63.82
2023-11-14T02:44:24.856Z,64.01
2023-11-14T02:45:30.326Z,64.3
2023-11-14T02:46:36.163Z,63.84
2023-11-14T02:47:42.021Z,63.82
2023-11-14T02:48:47.628Z,63.78
2023-11-14T02:49:53.251Z,63.84
2023-11-14T02:50:58.745Z,63.89
2023-11-14T02:52:04.213Z,63.83
2023-11-14T02:53:09.860Z,64.35
2023-11-14T02:54:15.430Z,64.1
2023-11-14T02:55:20.897Z,64.54
2023-11-14T02:56:26.374Z,64.17
2023-11-14T02:57:31.812Z,64.01
2023-11-14T02:58:37.338Z,64.55
2023-11-14T02:59:42.982Z,64.66
2023-11-14T03:00:48.841Z,63.83
2023-11-14T03:01:54.487Z,63.88
2023-11-14T03:03:00.203Z,63.57
2023-11-14T03:04:05.889Z,63.7
2023-11-14T03:05:11.536Z,63.89
2023-11-14T03:06:17.063Z,63.49
2023-11-14T03:07:22.563Z,63.57
2023-11-14T03:08:28.104Z,63.59
2023-11-14T03:09:33.559Z,63.66
2023-11-14T03:10:39.107Z,63.68
2023-11-14T03:11:44.580Z,63.49
2023-11-14T03:12:50.086Z,63.63
2023-11-14T03:13:55.655Z,63.43
2023-11-14T03:15:01.224Z,63.4
2023-11-14T03:16:06.967Z,63.52
2023-11-14T03:17:12.583Z,63.46
2023-11-14T03:18:18.147Z,63.6
2023-11-14T03:19:23.582Z,63.64
2023-11-14T03:20:37.383Z,63.7
2023-11-14T03:21:42.837Z,63.69
2023-11-14T03:22:48.368Z,63.59
2023-11-14T03:23:53.856Z,63.95
2023-11-14T03:24:59.324Z,64.19
2023-11-14T03:26:05.052Z,63.75
2023-11-14T03:27:10.641Z,63.61
2023-11-14T03:28:16.101Z,63.74
2023-11-14T03:29:21.568Z,63.46
2023-11-14T03:30:27.236Z,63.41
2023-11-14T03:31:32.819Z,63.76
2023-11-14T03:32:38.907Z,63.67
2023-11-14T03:33:44.437Z,63.59
2023-11-14T03:34:50.199Z,63.51
2023-11-14T03:35:55.888Z,63.52
2023-11-14T03:37:01.386Z,63.71
2023-11-14T03:38:06.988Z,63.58
2023-11-14T03:39:12.438Z,63.5
2023-11-14T03:40:17.943Z,63.7
2023-11-14T03:41:23.518Z,63.84
2023-11-14T03:42:29.107Z,63.71
2023-11-14T03:43:34.704Z,64.32
2023-11-14T03:44:40.200Z,63.9
2023-11-14T03:45:45.726Z,63.92
2023-11-14T03:46:51.335Z,64.35
2023-11-14T03:47:56.971Z,63.83
2023-11-14T03:49:02.462Z,63.72
2023-11-14T03:50:08.300Z,64.05
2023-11-14T03:51:13.825Z,63.78
2023-11-14T03:52:19.339Z,63.76
2023-11-14T03:53:24.791Z,63.57
2023-11-14T03:54:30.312Z,64.13
2023-11-14T03:55:35.896Z,63.96
2023-11-14T03:56:41.369Z,63.77
2023-11-14T03:57:46.818Z,63.85
2023-11-14T03:58:52.311Z,64.08
2023-11-14T03:59:57.760Z,64.08
2023-11-14T04:01:03.420Z,63.83
2023-11-14T04:02:09.192Z,63.9
2023-11-14T04:03:14.768Z,64.26
2023-11-14T04:04:20.269Z,63.95
2023-11-14T04:05:25.729Z,63.93
2023-11-14T04:06:31.253Z,64.64
2023-11-14T04:07:36.765Z,64.43
2023-11-14T04:08:42.249Z,64.66
2023-11-14T04:09:47.715Z,64.4
2023-11-14T04:10:53.285Z,64.59
2023-11-14T04:11:58.873Z,64.54
2023-11-14T04:13:04.350Z,64.76
2023-11-14T04:14:09.940Z,64.86
2023-11-14T04:15:15.404Z,64.6
2023-11-14T04:16:21.022Z,64.63
2023-11-14T04:17:27.069Z,64.91
2023-11-14T04:18:32.779Z,64.31
2023-11-14T04:19:38.473Z,64.4
2023-11-14T04:20:43.980Z,64.92
2023-11-14T04:21:49.467Z,64.84
2023-11-14T04:22:55.127Z,64.74
2023-11-14T04:24:00.602Z,64.72
2023-11-14T04:25:06.157Z,64.68
2023-11-14T04:26:11.925Z,64.96
2023-11-14T04:27:17.387Z,64.78
2023-11-14T04:28:22.826Z,64.68
2023-11-14T04:29:28.296Z,64.61
2023-11-14T04:30:33.788Z,64.42
2023-11-14T04:31:39.539Z,64.63
2023-11-14T04:32:45.415Z,64.79
2023-11-14T04:33:51.004Z,64.09
2023-11-14T04:34:56.726Z,64.45
2023-11-14T04:36:02.200Z,64.54
2023-11-14T04:37:07.682Z,64.17
2023-11-14T04:38:13.278Z,63.9
2023-11-14T04:39:18.808Z,64
2023-11-14T04:40:24.281Z,64.13
2023-11-14T04:41:29.751Z,64.41
2023-11-14T04:42:35.467Z,64.4
2023-11-14T04:43:40.963Z,64
2023-11-14T04:44:46.494Z,64.48
2023-11-14T04:45:51.968Z,64.3
2023-11-14T04:46:57.697Z,64.12
2023-11-14T04:48:03.256Z,64.09
2023-11-14T04:49:08.809Z,64.35
2023-11-14T04:50:15.398Z,63.88
2023-11-14T04:51:20.897Z,63.66
2023-11-14T04:52:26.405Z,64.2
2023-11-14T04:53:31.862Z,63.75
2023-11-14T04:54:37.340Z,63.51
2023-11-14T04:55:42.882Z,63.99
2023-11-14T04:56:48.362Z,63.76
2023-11-14T04:57:53.854Z,63.75
2023-11-14T04:58:59.473Z,63.49
2023-11-14T05:00:05.307Z,63.61
2023-11-14T05:01:10.965Z,63.51
2023-11-14T05:02:16.584Z,63.54
2023-11-14T05:03:22.459Z,63.61
2023-11-14T05:04:27.948Z,63.96
2023-11-14T05:05:33.384Z,63.96
2023-11-14T05:06:38.887Z,64.08
2023-11-14T05:07:44.448Z,63.97
2023-11-14T05:08:49.934Z,63.59
2023-11-14T05:09:55.370Z,62.47
2023-11-14T05:11:01.088Z,62.16
2023-11-14T05:12:06.607Z,61.26
2023-11-14T05:13:12.048Z,61.49
2023-11-14T05:14:17.632Z,61.58
2023-11-14T05:15:23.064Z,61.02
2023-11-14T05:16:28.731Z,61.27
2023-11-14T05:17:34.674Z,60.98
2023-11-14T05:18:40.308Z,60.95
2023-11-14T05:19:50.340Z,60.89
2023-11-14T05:20:55.860Z,60.84
2023-11-14T05:22:01.327Z,60.8
2023-11-14T05:23:06.897Z,60.59
2023-11-14T05:24:12.469Z,60.79
2023-11-14T05:25:17.952Z,60.8
2023-11-14T05:26:23.385Z,60.91
2023-11-14T05:27:28.883Z,60.82
2023-11-14T05:28:34.439Z,60.84
2023-11-14T05:29:40.750Z,60.73
2023-11-14T05:30:46.477Z,60.69
2023-11-14T05:31:52.065Z,60.73
2023-11-14T05:32:57.654Z,60.62
2023-11-14T05:34:03.167Z,60.47
2023-11-14T05:35:08.864Z,60.43
2023-11-14T05:36:14.350Z,60.42
2023-11-14T05:37:19.838Z,60.31
2023-11-14T05:38:25.322Z,60.2
2023-11-14T05:39:30.822Z,60.3
2023-11-14T05:40:36.698Z,60.26
2023-11-14T05:41:43.088Z,60.2
2023-11-14T05:42:48.547Z,60.25
2023-11-14T05:43:54.095Z,60.21
2023-11-14T05:44:59.588Z,60.14
2023-11-14T05:46:05.160Z,60.14
2023-11-14T05:47:10.835Z,60.11
2023-11-14T05:48:19.965Z,60.2
2023-11-14T05:49:26.027Z,60.1
2023-11-14T05:50:31.540Z,60.21
2023-11-14T05:51:37.014Z,60.11
2023-11-14T05:52:42.651Z,60.18
2023-11-14T05:53:48.124Z,60.15
2023-11-14T05:54:53.549Z,60.06
2023-11-14T05:55:59.143Z,60.14
2023-11-14T05:57:04.664Z,60.07
2023-11-14T05:58:10.184Z,60.13
2023-11-14T05:59:15.738Z,60.27
2023-11-14T06:00:21.215Z,60.12
2023-11-14T06:01:26.667Z,60.21
2023-11-14T06:02:32.244Z,60.31
2023-11-14T06:03:38.059Z,60.21
2023-11-14T06:04:44.010Z,60.19
2023-11-14T06:05:49.606Z,60.18
2023-11-14T06:06:55.040Z,60.13
2023-11-14T06:08:00.642Z,60.11
2023-11-14T06:09:06.140Z,60.12
2023-11-14T06:10:11.664Z,60.09
2023-11-14T06:11:19.875Z,60.06
2023-11-14T06:12:25.519Z,60.03
2023-11-14T06:13:31.031Z,59.98
2023-11-14T06:14:36.485Z,60
2023-11-14T06:15:42.161Z,60.02
2023-11-14T06:16:47.874Z,60.04
2023-11-14T06:17:53.457Z,60.04
2023-11-14T06:18:58.910Z,60.02
2023-11-14T06:20:04.508Z,60.02
2023-11-14T06:21:10.046Z,60.04
2023-11-14T06:22:15.474Z,60.04
2023-11-14T06:23:21.240Z,60.05
2023-11-14T06:24:26.775Z,60.07
2023-11-14T06:25:32.248Z,60.07
2023-11-14T06:26:37.800Z,60.02
2023-11-14T06:27:43.260Z,60.1
2023-11-14T06:28:48.827Z,60.04
2023-11-14T06:29:54.296Z,60.02
2023-11-14T06:30:59.745Z,59.99
2023-11-14T06:32:05.454Z,59.94
2023-11-14T06:33:11.081Z,60.03
2023-11-14T06:34:16.685Z,60.03
2023-11-14T06:35:22.297Z,59.92
2023-11-14T06:36:27.763Z,60.03
2023-11-14T06:37:33.246Z,59.62
2023-11-14T06:38:38.719Z,59.42
2023-11-14T06:39:44.260Z,59.62
2023-11-14T06:40:49.954Z,59.71
2023-11-14T06:41:55.456Z,59.56
2023-11-14T06:43:00.971Z,59.65
2023-11-14T06:44:06.592Z,59.65
2023-11-14T06:45:12.140Z,59.77
2023-11-14T06:46:17.705Z,59.62
2023-11-14T06:47:23.298Z,59.73
2023-11-14T06:48:28.808Z,59.71
2023-11-14T06:49:34.291Z,59.66
2023-11-14T06:50:49.656Z,59.6
2023-11-14T06:51:56.388Z,59.6
2023-11-14T06:53:01.960Z,59.58
2023-11-14T06:54:07.497Z,59.58
2023-11-14T06:55:12.992Z,59.6
2023-11-14T06:56:18.562Z,59.58
2023-11-14T06:57:24.111Z,59.63
2023-11-14T06:58:29.602Z,59.53
2023-11-14T06:59:35.045Z,59.47
2023-11-14T07:00:40.538Z,59.46
2023-11-14T07:01:46.325Z,59.4
2023-11-14T07:02:52.218Z,59.55
2023-11-14T07:03:57.919Z,59.47
2023-11-14T07:05:03.573Z,59.62
2023-11-14T07:06:09.232Z,59.47
2023-11-14T07:07:14.786Z,59.38
2023-11-14T07:08:20.341Z,59.36
2023-11-14T07:09:25.907Z,59.28
2023-11-14T07:10:31.375Z,59.26
2023-11-14T07:11:36.871Z,59.3
2023-11-14T07:12:42.380Z,59.25
2023-11-14T07:13:47.917Z,59.33
2023-11-14T07:14:53.542Z,59.3
2023-11-14T07:15:59.248Z,59.31
2023-11-14T07:17:05.164Z,59.34
2023-11-14T07:18:11.329Z,59.4
2023-11-14T07:19:16.846Z,59.35
2023-11-14T07:20:22.740Z,59.41
2023-11-14T07:21:28.350Z,59.37
2023-11-14T07:22:33.867Z,59.42
2023-11-14T07:23:39.387Z,59.45
2023-11-14T07:24:45.137Z,59.47
2023-11-14T07:25:50.675Z,59.51
2023-11-14T07:26:56.235Z,59.41
2023-11-14T07:28:01.705Z,59.41
2023-11-14T07:29:07.526Z,59.42
2023-11-14T07:30:13.024Z,59.36
2023-11-14T07:31:18.453Z,59.3
2023-11-14T07:32:24.114Z,59.33
2023-11-14T07:33:29.621Z,59.28
2023-11-14T07:34:35.133Z,59.32
2023-11-14T07:35:40.809Z,59.2
2023-11-14T07:36:46.246Z,59.26
2023-11-14T07:37:51.744Z,59.23
2023-11-14T07:38:57.240Z,59.27
2023-11-14T07:40:02.723Z,59.28
2023-11-14T07:41:08.425Z,59.28
2023-11-14T07:42:13.916Z,59.3
2023-11-14T07:43:19.361Z,59.3
2023-11-14T07:44:25.437Z,59.32
2023-11-14T07:45:30.901Z,59.32
2023-11-14T07:46:36.570Z,59.29
2023-11-14T07:47:42.556Z,59.26
2023-11-14T07:48:48.143Z,59.25
2023-11-14T07:49:53.732Z,59.27
2023-11-14T07:51:01.754Z,59.21
2023-11-14T07:52:07.228Z,59.14
2023-11-14T07:53:12.857Z,59.14
2023-11-14T07:54:18.363Z,58.97
2023-11-14T07:55:23.871Z,58.88
2023-11-14T07:56:29.296Z,59.25
2023-11-14T07:57:34.892Z,59.21
2023-11-14T07:58:40.479Z,59.28
2023-11-14T07:59:45.988Z,59.25
2023-11-14T08:00:51.503Z,59.21
2023-11-14T08:01:57.072Z,59.17
2023-11-14T08:03:03.045Z,59.13
2023-11-14T08:04:08.987Z,59.14
2023-11-14T08:05:15.048Z,59.12
2023-11-14T08:06:20.544Z,59.16
2023-11-14T08:07:26.230Z,59.15
2023-11-14T08:08:31.920Z,59.15
2023-11-14T08:09:37.412Z,59.13
2023-11-14T08:10:43.028Z,59.11
2023-11-14T08:11:48.529Z,59.13
2023-11-14T08:12:53.991Z,59.14
2023-11-14T08:13:59.506Z,59.13
2023-11-14T08:15:04.988Z,59.12
2023-11-14T08:16:10.473Z,59.12
2023-11-14T08:17:16.160Z,59.11
2023-11-14T08:18:21.776Z,59.12
2023-11-14T08:19:27.264Z,59.11
2023-11-14T08:20:32.755Z,59.12
2023-11-14T08:21:38.288Z,59.11
2023-11-14T08:22:43.907Z,59.09
2023-11-14T08:23:49.405Z,59.11
2023-11-14T08:24:55.102Z,59.11
2023-11-14T08:26:00.645Z,59.12
2023-11-14T08:27:06.130Z,59.15
2023-11-14T08:28:11.611Z,59.11
2023-11-14T08:29:17.193Z,59.18
2023-11-14T08:30:22.760Z,59.15
2023-11-14T08:31:28.435Z,59.14
2023-11-14T08:32:34.209Z,59.05
2023-11-14T08:33:39.700Z,59.1
2023-11-14T08:34:45.271Z,59.08
2023-11-14T08:35:50.928Z,59.16
2023-11-14T08:36:56.475Z,59.14
2023-11-14T08:38:21.683Z,59.15
2023-11-14T08:39:31.996Z,59.17
2023-11-14T08:40:37.482Z,59.14
2023-11-14T08:41:43.228Z,59.15
2023-11-14T08:42:48.737Z,59.17
2023-11-14T08:43:54.239Z,59.17
2023-11-14T08:44:59.764Z,59.07
2023-11-14T08:46:05.430Z,59.13
2023-11-14T08:47:11.138Z,59.09
2023-11-14T08:48:16.624Z,58.79
2023-11-14T08:49:22.092Z,58.84
2023-11-14T08:50:27.885Z,58.91
2023-11-14T08:51:33.454Z,59
2023-11-14T08:52:39.134Z,59.16
2023-11-14T08:53:44.588Z,59
2023-11-14T08:54:50.076Z,59.11
2023-11-14T08:55:55.662Z,59.1
2023-11-14T08:57:01.168Z,59.11
2023-11-14T08:58:06.621Z,59.08
2023-11-14T08:59:12.156Z,58.96
2023-11-14T09:00:17.753Z,59.02
2023-11-14T09:01:25.512Z,59.14
2023-11-14T09:02:31.360Z,59.15
2023-11-14T09:03:37.205Z,59.04
2023-11-14T09:04:42.833Z,59
2023-11-14T09:05:48.379Z,59.15
2023-11-14T09:06:55.728Z,59.08
2023-11-14T09:08:01.380Z,59
2023-11-14T09:09:06.896Z,58.95
2023-11-14T09:10:12.378Z,59.16
2023-11-14T09:11:18.084Z,59.04
2023-11-14T09:12:23.694Z,59.17
2023-11-14T09:13:29.240Z,59.05
2023-11-14T09:14:34.814Z,58.97
2023-11-14T09:15:40.344Z,59.03
2023-11-14T09:16:46.102Z,59.03
2023-11-14T09:18:00.199Z,58.97
2023-11-14T09:19:06.144Z,58.91
2023-11-14T09:20:11.777Z,59.23
2023-11-14T09:21:17.283Z,59.19
2023-11-14T09:22:22.757Z,59.1
2023-11-14T09:23:28.343Z,59.03
2023-11-14T09:24:33.906Z,59
2023-11-14T09:25:39.678Z,59.01
2023-11-14T09:26:45.175Z,59.01
2023-11-14T09:27:50.655Z,58.99
2023-11-14T09:28:56.256Z,59
2023-11-14T09:30:01.759Z,58.94
2023-11-14T09:31:09.148Z,58.98
2023-11-14T09:32:15.797Z,58.88
2023-11-14T09:33:21.318Z,58.91
2023-11-14T09:34:26.904Z,58.73
2023-11-14T09:35:32.431Z,58.76
2023-11-14T09:36:37.910Z,58.6
2023-11-14T09:37:43.457Z,58.71
2023-11-14T09:38:48.966Z,58.62
2023-11-14T09:39:54.419Z,58.51
2023-11-14T09:41:00.020Z,58.51
2023-11-14T09:42:05.560Z,58.47
2023-11-14T09:43:11.086Z,58.46
2023-11-14T09:44:16.864Z,58.32
2023-11-14T09:45:22.356Z,58.35
2023-11-14T09:46:28.046Z,58.38
2023-11-14T09:47:33.688Z,58.37
2023-11-14T09:48:39.217Z,58.32
2023-11-14T09:49:45.243Z,58.37
2023-11-14T09:50:50.758Z,58.47
2023-11-14T09:51:56.183Z,58.34
2023-11-14T09:53:01.741Z,58.37
2023-11-14T09:54:07.253Z,58.48
2023-11-14T09:55:12.728Z,58.58
2023-11-14T09:56:19.547Z,58.44
2023-11-14T09:57:25.104Z,58.36
2023-11-14T09:58:30.584Z,58.54
2023-11-14T09:59:36.084Z,58.5
2023-11-14T10:00:41.576Z,58.51
2023-11-14T10:01:47.385Z,58.46
2023-11-14T10:02:53.596Z,58.52
2023-11-14T10:03:59.387Z,58.51
2023-11-14T10:05:18.548Z,58.23
2023-11-14T10:06:24.215Z,58.49
2023-11-14T10:07:31.780Z,58.46
2023-11-14T10:08:58.348Z,58.38
2023-11-14T10:10:06.689Z,58.31
2023-11-14T10:11:12.532Z,58.4
2023-11-14T10:12:27.231Z,58.38
2023-11-14T10:13:32.692Z,58.34
2023-11-14T10:14:38.164Z,58.26
2023-11-14T10:15:43.837Z,58.29
2023-11-14T10:16:49.643Z,58.26
2023-11-14T10:17:55.444Z,58.2
2023-11-14T10:19:01.011Z,58.32
2023-11-14T10:20:10.094Z,58.3
2023-11-14T10:21:16.207Z,58.27
2023-11-14T10:22:21.697Z,58.27
2023-11-14T10:23:42.034Z,58.24
2023-11-14T10:24:47.500Z,58.25
2023-11-14T10:25:53.042Z,58.28
2023-11-14T10:26:58.580Z,58.25
2023-11-14T10:28:04.390Z,58.26
2023-11-14T10:29:10.056Z,58.24
2023-11-14T10:30:15.687Z,58.16
2023-11-14T10:31:21.311Z,58.11
2023-11-14T10:32:27.338Z,58.23
2023-11-14T10:33:33.204Z,58.18
2023-11-14T10:34:38.791Z,58.16
2023-11-14T10:35:44.248Z,58.01
2023-11-14T10:36:49.770Z,57.61
2023-11-14T10:37:55.325Z,58.14
2023-11-14T10:39:00.804Z,57.69
2023-11-14T10:40:06.239Z,57.77
2023-11-14T10:41:12.016Z,57.75
2023-11-14T10:42:17.574Z,57.71
2023-11-14T10:43:23.049Z,57.88
2023-11-14T10:44:28.754Z,57.51
2023-11-14T10:45:34.550Z,57.92
2023-11-14T10:46:40.124Z,57.73
2023-11-14T10:47:45.887Z,57.71
2023-11-14T10:48:51.415Z,57.52
2023-11-14T10:49:57.049Z,57.56
2023-11-14T10:51:02.527Z,57.48
2023-11-14T10:52:08.012Z,57.46
2023-11-14T10:53:13.702Z,57.92
2023-11-14T10:54:19.322Z,58
2023-11-14T10:55:24.881Z,58
2023-11-14T10:56:30.459Z,57.93
2023-11-14T10:57:36.193Z,57.95
2023-11-14T10:58:41.695Z,57.93
2023-11-14T10:59:47.167Z,57.94
2023-11-14T11:00:52.849Z,57.95
2023-11-14T11:01:58.444Z,57.93
2023-11-14T11:03:04.141Z,57.97
2023-11-14T11:04:09.741Z,57.93
2023-11-14T11:05:33.019Z,57.8
2023-11-14T11:06:38.622Z,57.97
2023-11-14T11:07:44.097Z,58
2023-11-14T11:08:49.582Z,57.93
2023-11-14T11:09:55.194Z,57.9
2023-11-14T11:11:01.052Z,57.96
2023-11-14T11:12:06.555Z,57.85
2023-11-14T11:13:12.055Z,58
2023-11-14T11:14:17.661Z,57.84
2023-11-14T11:15:23.143Z,57.82
2023-11-14T11:16:28.673Z,57.98
2023-11-14T11:17:34.304Z,57.86
2023-11-14T11:18:40.078Z,57.97
2023-11-14T11:19:45.565Z,57.89
2023-11-14T11:20:51.235Z,57.97
2023-11-14T11:21:56.676Z,57.94
2023-11-14T11:23:02.262Z,57.8
2023-11-14T11:24:08.036Z,57.84
2023-11-14T11:25:13.511Z,58
2023-11-14T11:26:23.020Z,58.01
2023-11-14T11:27:28.488Z,57.94
2023-11-14T11:28:35.950Z,57.92
2023-11-14T11:29:41.808Z,58
2023-11-14T11:30:47.364Z,57.98
2023-11-14T11:31:53.257Z,57.83
2023-11-14T11:32:58.856Z,57.87
2023-11-14T11:34:04.333Z,57.95
2023-11-14T11:35:13.965Z,57.99
2023-11-14T11:36:20.011Z,57.87
2023-11-14T11:37:25.533Z,57.9
2023-11-14T11:38:31.094Z,57.96
2023-11-14T11:39:36.565Z,58
2023-11-14T11:40:42.033Z,57.96
2023-11-14T11:41:47.551Z,57.96
2023-11-14T11:42:53.023Z,57.9
2023-11-14T11:43:58.631Z,57.94
2023-11-14T11:45:04.161Z,58.01
2023-11-14T11:46:09.801Z,57.96
2023-11-14T11:47:17.104Z,57.89
2023-11-14T11:48:22.785Z,57.88
2023-11-14T11:49:28.331Z,57.86
2023-11-14T11:50:33.812Z,57.73
2023-11-14T11:51:39.318Z,57.68
2023-11-14T11:52:44.777Z,57.78
2023-11-14T11:53:50.297Z,57.44
2023-11-14T11:54:55.764Z,57.8
2023-11-14T11:56:01.323Z,57.82
2023-11-14T11:57:06.897Z,57.81
2023-11-14T11:58:12.872Z,57.43
2023-11-14T11:59:18.579Z,57.55
2023-11-14T12:00:24.134Z,57.35
2023-11-14T12:01:29.612Z,57.56
2023-11-14T12:02:35.459Z,57.67
2023-11-14T12:03:41.323Z,57.57
2023-11-14T12:04:47.683Z,57.52
2023-11-14T12:05:53.707Z,57.56
2023-11-14T12:06:59.258Z,57.51
2023-11-14T12:08:04.899Z,57.48
2023-11-14T12:09:10.437Z,57.46
2023-11-14T12:10:15.908Z,57.3
2023-11-14T12:11:21.518Z,57.43
2023-11-14T12:12:26.999Z,57.32
2023-11-14T12:13:32.475Z,57.39
2023-11-14T12:14:38.789Z,57.24
2023-11-14T12:15:44.540Z,57.29
2023-11-14T12:16:50.113Z,57.26
2023-11-14T12:17:55.848Z,57.29
2023-11-14T12:19:01.412Z,57.37
2023-11-14T12:20:15.044Z,57.34
2023-11-14T12:21:20.562Z,57.24
2023-11-14T12:22:26.102Z,57.25
2023-11-14T12:23:32.694Z,57.29
2023-11-14T12:24:38.353Z,57.35
2023-11-14T12:25:45.059Z,57.38
2023-11-14T12:26:50.516Z,57.27
2023-11-14T12:27:55.949Z,57.34
2023-11-14T12:29:01.490Z,57.49
2023-11-14T12:30:06.946Z,57.48
2023-11-14T12:31:12.471Z,57.52
2023-11-14T12:32:18.170Z,57.55
2023-11-14T12:33:23.853Z,57.62
2023-11-14T12:34:29.356Z,57.53
2023-11-14T12:35:34.853Z,57.57
2023-11-14T12:36:40.312Z,57.51
2023-11-14T12:37:45.780Z,57.57
2023-11-14T12:38:51.380Z,57.53
2023-11-14T12:39:56.861Z,57.56
2023-11-14T12:41:02.393Z,57.53
2023-11-14T12:42:08.139Z,57.61
2023-11-14T12:43:13.642Z,57.44
2023-11-14T12:44:19.359Z,57.24
2023-11-14T12:45:24.929Z,57.27
2023-11-14T12:46:30.636Z,57.24
2023-11-14T12:47:36.321Z,57.34
2023-11-14T12:48:41.779Z,57.26
2023-11-14T12:49:47.323Z,57.22
2023-11-14T12:50:52.828Z,56.95
2023-11-14T12:51:58.302Z,57.27
2023-11-14T12:53:05.202Z,57.06
2023-11-14T12:54:10.744Z,57.24
2023-11-14T12:55:16.195Z,57.42
2023-11-14T12:56:21.706Z,57.05
2023-11-14T12:57:27.413Z,57.05
2023-11-14T12:58:32.921Z,57.38
2023-11-14T12:59:38.568Z,56.95
2023-11-14T13:00:44.231Z,57.06
2023-11-14T13:01:50.980Z,57.21
2023-11-14T13:02:57.052Z,56.82
2023-11-14T13:04:02.650Z,56.95
2023-11-14T13:05:08.403Z,56.94
2023-11-14T13:06:13.905Z,56.93
2023-11-14T13:07:19.365Z,56.88
2023-11-14T13:08:24.964Z,56.86
2023-11-14T13:09:31.306Z,56.79
2023-11-14T13:10:37.175Z,56.84
2023-11-14T13:11:42.656Z,56.79
2023-11-14T13:12:48.154Z,56.89
2023-11-14T13:13:53.676Z,57
2023-11-14T13:14:59.173Z,56.87
2023-11-14T13:16:04.728Z,56.89
2023-11-14T13:17:10.389Z,56.96
2023-11-14T13:18:16.050Z,56.82
2023-11-14T13:19:21.545Z,56.78
2023-11-14T13:20:27.074Z,56.96
2023-11-14T13:21:32.615Z,56.87
2023-11-14T13:22:39.309Z,56.86
2023-11-14T13:23:44.794Z,56.69
2023-11-14T13:24:50.268Z,56.73
2023-11-14T13:25:55.804Z,56.72
2023-11-14T13:27:01.315Z,56.71
2023-11-14T13:28:06.822Z,56.79
2023-11-14T13:29:12.411Z,56.8
2023-11-14T13:30:17.915Z,56.87
2023-11-14T13:31:23.427Z,56.83
2023-11-14T13:32:29.421Z,56.9
2023-11-14T13:33:35.123Z,56.81
2023-11-14T13:34:40.659Z,56.78
2023-11-14T13:35:49.139Z,56.76
2023-11-14T13:36:54.626Z,56.82
2023-11-14T13:38:00.323Z,56.79
2023-11-14T13:39:05.859Z,56.79
2023-11-14T13:40:11.531Z,56.75
2023-11-14T13:41:19.698Z,56.71
2023-11-14T13:42:25.236Z,56.69
2023-11-14T13:43:30.705Z,56.71
2023-11-14T13:44:36.227Z,56.65
2023-11-14T13:45:41.746Z,56.65
2023-11-14T13:46:50.312Z,56.64
2023-11-14T13:47:56.274Z,56.65
2023-11-14T13:49:01.875Z,56.68
2023-11-14T13:50:07.425Z,56.78
2023-11-14T13:51:12.893Z,56.8
2023-11-14T13:52:18.337Z,56.79
2023-11-14T13:53:24.001Z,56.78
2023-11-14T13:54:29.479Z,56.8
2023-11-14T13:55:34.985Z,56.9
2023-11-14T13:56:40.563Z,56.84
2023-11-14T13:57:46.010Z,56.83
2023-11-14T13:58:51.732Z,56.96
2023-11-14T13:59:57.345Z,57.02
2023-11-14T14:01:02.906Z,57.04
2023-11-14T14:02:08.517Z,57.13
2023-11-14T14:03:14.336Z,57.18
2023-11-14T14:04:19.852Z,57.22
2023-11-14T14:05:25.489Z,57.27
2023-11-14T14:06:31.017Z,57.33
2023-11-14T14:07:36.559Z,57.37
2023-11-14T14:08:42.100Z,57.5
2023-11-14T14:09:47.576Z,57.54
2023-11-14T14:10:53.204Z,57.62
2023-11-14T14:11:58.642Z,57.63